الصفحة الرئيسية
METAR-TAF:

METAR-TAF

مطار :

North Las Vegas Airport

نورث لاس فيغاس, نيفادا, الولايات المتحدة

دائرة عرض: 36-12-42N, خط طول: 115-11-45W, ارتفاع: 672 متر

مراقبة الطقس الحالي

تاريخ ووقت الإصدار 57 دقيقة قبل الساعة 00:53UTC
ريح 9 عقدة من الجنوب/الجنوب الشرقي
درجة الحرارة 41°درجة مئوية
الرطوبة 5%
ضغط 1011 hPa
الرؤية: 16.1 كم
سماء صافية

METAR: KVGT 100053Z AUTO 15009KT 10SM CLR 41/M07 A2985 RMK AO2 SLP092 T04061072

زمن: 18:50 (01:50 UTC)

توقعات

تاريخ ووقت الإصدار 2ساعات و 30 دقيقة قبل الساعة 23:20UTC
التوقعات صالحة من10 الساعة 00 UTC إلى 10 الساعة 24 UTC
ريح 5 عقدة من الشرق/الجنوب الشرقي
الرؤية: 10 كم
سماء صافية
من 10 الساعة 0400 UTC
ريح 7 عقدة من الشمال/الشمال الغربي
الرؤية: 10 كم
سماء صافية
من 10 الساعة 1700 UTC
ريح 9 عقدة من الجنوب الشرقي
الرؤية: 10 كم
سماء صافية

TAF: KVGT 092320Z 1000/1024 12005KT P6SM SKC FM100400 33007KT P6SM SKC FM101700 13009KT P6SM SKC

أرصاد الطقس والتوقعات من أكثر من 4000 مطار (تقارير الطقس للمطار METAR والتنبؤ بالطقس بالمطارTAF).

المحطات المتاحة هي النقط الصفراء والحمراء على الخريطة.

حرك المؤشر فوق النقطة لمعرفة اسم المحطة.

ثم انقر لمعرفة أرصاد وتوقعات الطقس.

لتغيير الخارطة: اضغط على الأزرار الخضراء مع رمز الصليب الأسود للتكبير. على الزر الأخضر مع شرطة للتصغير، أو على الأسهم الخضراء للخرائط المجاورة.


METAR-TAF: